עמוד ראשי
METAR-TAF:

METAR-TAF

שדות תעופה :

Shungnak, אלסקה, ארצות הברית

קו רוחב: 66-53-17N, קו אורך: 157-09-45W, גובה: 60מטר

תצפית מזג אוויר נוכחית

הדו"ח נערך לפני 50דקות, בשעה 18:56 UTC
רוח רגועה
טמפרטורת 14 צלסיוס
לחות 58%
לחץ 1016 hPa
ראות: 16.1קילומטר
שמיים נקיים

METAR: PAGH 171856Z AUTO 00000KT 10SM CLR 14/06 A2999 RMK AO2 SLP159 T01440056

זמן: 11:46 (19:46 UTC)


TAF: חסר

תצפיות ותחזיות מזג אוויר לגבי יותר מ- 4,000 שדות תעופה ברחבי העולם. דוחות METAR ו- TAF.

התחנות הזמינות מסומנות בנקודות צהובות ואדומות על גבי המפה.

העבר את העכבר לנקודה הצבעונית על מנת לראות את שם התחנה.

לאחר מכן, לחץ כדי לראות את תוכן ואת תחזיות מזג האוויר.

כדי לשנות את המפה: לחץ על הכפתורים הירוקים עם הפלוס השחור כדי להתקרב; על הכפתור הירוק עם המקף כדי להתרחק; או בחיצים הירוקים למפות סמוכות.


METAR-TAF: